Terminal Aerodrome Forecast
Issued by NWS

Current Version | Previous Version | Graphics & Text | Print | Product List | Glossary On
Versions: 1 2 3 4 5 6 7 8 9 10 11 12 13 14 15 16 17 18 19 20 21
000
FTUS41 KPBZ 230842 AAB
TAFMGW
TAF AMD
KMGW 230842Z 2309/2406 00000KT 1/2SM FG BKN004
     FM231200 VRB02KT 1 1/2SM BR BKN006
     FM231330 01003KT P6SM SCT090
     FM231700 36006KT P6SM VCTS BKN040CB
     FM232200 35003KT P6SM BKN100
     FM240300 00000KT 3SM BR SKC=

USA.gov is the U.S. government's official web portal to all federal, state and local government web resources and services.